sensor_id;sensor_type;location;lat;lon;timestamp;temperature;humidity
1992;DHT22;997;48.448;8.924;2022-08-23T03:02:44;16.80;99.90
1992;DHT22;997;48.448;8.924;2022-08-23T03:05:10;16.90;99.90
1992;DHT22;997;48.448;8.924;2022-08-23T03:07:37;16.80;99.90
1992;DHT22;997;48.448;8.924;2022-08-23T03:10:05;16.80;99.90
1992;DHT22;997;48.448;8.924;2022-08-23T03:12:32;16.70;99.90
1992;DHT22;997;48.448;8.924;2022-08-23T03:14:58;16.70;99.90
1992;DHT22;997;48.448;8.924;2022-08-23T03:17:23;16.70;99.90
1992;DHT22;997;48.448;8.924;2022-08-23T03:19:49;16.60;99.90
1992;DHT22;997;48.448;8.924;2022-08-23T03:22:17;16.70;99.90
1992;DHT22;997;48.448;8.924;2022-08-23T03:24:43;16.90;99.90
1992;DHT22;997;48.448;8.924;2022-08-23T03:27:09;17.00;99.90
1992;DHT22;997;48.448;8.924;2022-08-23T03:29:35;17.10;99.90
1992;DHT22;997;48.448;8.924;2022-08-23T03:32:02;17.10;99.90
1992;DHT22;997;48.448;8.924;2022-08-23T03:34:28;17.00;99.90
1992;DHT22;997;48.448;8.924;2022-08-23T03:36:53;17.00;99.90
1992;DHT22;997;48.448;8.924;2022-08-23T03:39:20;16.90;99.90
1992;DHT22;997;48.448;8.924;2022-08-23T03:41:46;16.80;99.90
1992;DHT22;997;48.448;8.924;2022-08-23T03:44:12;16.80;99.90
1992;DHT22;997;48.448;8.924;2022-08-23T03:46:38;16.70;99.90
1992;DHT22;997;48.448;8.924;2022-08-23T03:49:04;16.50;99.90
1992;DHT22;997;48.448;8.924;2022-08-23T03:51:31;16.50;99.90
1992;DHT22;997;48.448;8.924;2022-08-23T03:53:59;16.40;99.90
1992;DHT22;997;48.448;8.924;2022-08-23T03:56:26;16.40;99.90
1992;DHT22;997;48.448;8.924;2022-08-23T03:58:53;16.40;99.90
1992;DHT22;997;48.448;8.924;2022-08-23T04:01:19;16.30;99.90
1992;DHT22;997;48.448;8.924;2022-08-23T04:03:45;16.20;99.90
1992;DHT22;997;48.448;8.924;2022-08-23T04:06:12;16.00;99.90
1992;DHT22;997;48.448;8.924;2022-08-23T04:08:38;15.80;99.90
1992;DHT22;997;48.448;8.924;2022-08-23T04:11:04;15.70;99.90
1992;DHT22;997;48.448;8.924;2022-08-23T04:13:30;15.70;99.90
1992;DHT22;997;48.448;8.924;2022-08-23T04:15:56;15.70;99.90
1992;DHT22;997;48.448;8.924;2022-08-23T04:18:22;15.60;99.90
1992;DHT22;997;48.448;8.924;2022-08-23T04:20:49;15.50;99.90
1992;DHT22;997;48.448;8.924;2022-08-23T04:23:15;15.50;99.90
1992;DHT22;997;48.448;8.924;2022-08-23T04:25:40;15.50;99.90
1992;DHT22;997;48.448;8.924;2022-08-23T04:28:09;15.50;99.90
1992;DHT22;997;48.448;8.924;2022-08-23T04:30:34;15.40;99.90
1992;DHT22;997;48.448;8.924;2022-08-23T04:33:00;15.30;99.90
1992;DHT22;997;48.448;8.924;2022-08-23T04:35:26;15.20;99.90
1992;DHT22;997;48.448;8.924;2022-08-23T04:37:52;15.10;99.90
1992;DHT22;997;48.448;8.924;2022-08-23T04:40:18;15.00;99.90
1992;DHT22;997;48.448;8.924;2022-08-23T04:43:04;15.00;99.90
1992;DHT22;997;48.448;8.924;2022-08-23T04:45:30;15.00;99.90
1992;DHT22;997;48.448;8.924;2022-08-23T04:47:56;15.00;99.90
1992;DHT22;997;48.448;8.924;2022-08-23T04:50:22;15.00;99.90
1992;DHT22;997;48.448;8.924;2022-08-23T04:52:48;15.00;99.90
1992;DHT22;997;48.448;8.924;2022-08-23T04:55:14;15.10;99.90
1992;DHT22;997;48.448;8.924;2022-08-23T04:57:40;14.90;99.90
1992;DHT22;997;48.448;8.924;2022-08-23T05:00:09;14.80;99.90
1992;DHT22;997;48.448;8.924;2022-08-23T05:02:39;14.80;99.90
1992;DHT22;997;48.448;8.924;2022-08-23T05:05:07;14.90;99.90
1992;DHT22;997;48.448;8.924;2022-08-23T05:07:33;15.00;99.90
1992;DHT22;997;48.448;8.924;2022-08-23T05:09:59;15.00;99.90
1992;DHT22;997;48.448;8.924;2022-08-23T05:12:25;15.10;99.90
1992;DHT22;997;48.448;8.924;2022-08-23T05:14:50;15.20;99.90
1992;DHT22;997;48.448;8.924;2022-08-23T05:17:16;15.30;99.90
1992;DHT22;997;48.448;8.924;2022-08-23T05:19:42;15.40;99.90
1992;DHT22;997;48.448;8.924;2022-08-23T05:22:07;15.50;99.90
1992;DHT22;997;48.448;8.924;2022-08-23T05:24:33;15.60;99.90
1992;DHT22;997;48.448;8.924;2022-08-23T05:26:59;15.70;99.90
1992;DHT22;997;48.448;8.924;2022-08-23T05:29:24;15.80;99.90
1992;DHT22;997;48.448;8.924;2022-08-23T05:31:50;16.00;99.90
1992;DHT22;997;48.448;8.924;2022-08-23T05:34:16;16.10;99.90
1992;DHT22;997;48.448;8.924;2022-08-23T05:36:42;16.20;99.90
1992;DHT22;997;48.448;8.924;2022-08-23T05:39:07;16.30;99.90
1992;DHT22;997;48.448;8.924;2022-08-23T05:41:33;16.30;99.90
1992;DHT22;997;48.448;8.924;2022-08-23T05:43:59;16.30;99.90
1992;DHT22;997;48.448;8.924;2022-08-23T05:46:25;16.30;99.90
1992;DHT22;997;48.448;8.924;2022-08-23T05:48:50;16.30;99.90
1992;DHT22;997;48.448;8.924;2022-08-23T05:51:26;16.30;99.90
1992;DHT22;997;48.448;8.924;2022-08-23T05:53:55;16.40;99.90
1992;DHT22;997;48.448;8.924;2022-08-23T05:56:26;16.50;99.90
1992;DHT22;997;48.448;8.924;2022-08-23T06:02:59;16.60;99.90
1992;DHT22;997;48.448;8.924;2022-08-23T06:05:26;16.40;99.90
1992;DHT22;997;48.448;8.924;2022-08-23T06:07:52;16.40;99.90
1992;DHT22;997;48.448;8.924;2022-08-23T06:12:50;16.60;99.90
1992;DHT22;997;48.448;8.924;2022-08-23T06:15:16;16.60;99.90
1992;DHT22;997;48.448;8.924;2022-08-23T06:17:41;16.70;99.90
1992;DHT22;997;48.448;8.924;2022-08-23T06:20:08;16.70;99.90
1992;DHT22;997;48.448;8.924;2022-08-23T06:22:34;16.80;99.90
1992;DHT22;997;48.448;8.924;2022-08-23T06:25:00;16.80;99.90
1992;DHT22;997;48.448;8.924;2022-08-23T06:27:26;16.90;99.90
1992;DHT22;997;48.448;8.924;2022-08-23T06:29:51;17.10;99.90
1992;DHT22;997;48.448;8.924;2022-08-23T06:32:17;17.20;99.90
1992;DHT22;997;48.448;8.924;2022-08-23T06:34:43;17.30;99.90
1992;DHT22;997;48.448;8.924;2022-08-23T06:37:12;17.40;99.90
1992;DHT22;997;48.448;8.924;2022-08-23T06:39:39;17.50;99.90
1992;DHT22;997;48.448;8.924;2022-08-23T06:42:08;17.50;99.90
1992;DHT22;997;48.448;8.924;2022-08-23T06:44:35;17.60;99.90
1992;DHT22;997;48.448;8.924;2022-08-23T06:47:02;17.70;99.90
1992;DHT22;997;48.448;8.924;2022-08-23T06:49:27;17.60;99.90
1992;DHT22;997;48.448;8.924;2022-08-23T06:51:55;17.70;99.90
1992;DHT22;997;48.448;8.924;2022-08-23T06:54:23;17.90;99.90
1992;DHT22;997;48.448;8.924;2022-08-23T06:56:50;18.10;99.90
1992;DHT22;997;48.448;8.924;2022-08-23T06:59:17;18.20;99.90
1992;DHT22;997;48.448;8.924;2022-08-23T07:01:48;18.30;99.90
1992;DHT22;997;48.448;8.924;2022-08-23T07:04:21;18.40;99.90
1992;DHT22;997;48.448;8.924;2022-08-23T07:06:47;18.40;99.90
1992;DHT22;997;48.448;8.924;2022-08-23T07:09:13;18.50;99.90
1992;DHT22;997;48.448;8.924;2022-08-23T07:11:40;18.60;99.90
1992;DHT22;997;48.448;8.924;2022-08-23T07:14:08;18.70;99.90
1992;DHT22;997;48.448;8.924;2022-08-23T07:16:41;18.80;99.90
1992;DHT22;997;48.448;8.924;2022-08-23T07:19:08;19.00;99.90
1992;DHT22;997;48.448;8.924;2022-08-23T07:21:34;19.20;99.90
1992;DHT22;997;48.448;8.924;2022-08-23T07:24:00;19.40;99.90
1992;DHT22;997;48.448;8.924;2022-08-23T08:26:45;20.70;99.90
1992;DHT22;997;48.448;8.924;2022-08-23T08:29:12;20.80;99.90
1992;DHT22;997;48.448;8.924;2022-08-23T08:31:40;21.10;99.90
1992;DHT22;997;48.448;8.924;2022-08-23T08:34:06;21.60;99.90
1992;DHT22;997;48.448;8.924;2022-08-23T08:39:10;22.30;99.90
1992;DHT22;997;48.448;8.924;2022-08-23T08:46:53;23.30;99.90
1992;DHT22;997;48.448;8.924;2022-08-23T08:52:16;23.90;99.90
1992;DHT22;997;48.448;8.924;2022-08-23T08:54:48;24.00;99.90
1992;DHT22;997;48.448;8.924;2022-08-23T08:57:16;24.10;99.90
1992;DHT22;997;48.448;8.924;2022-08-23T08:59:59;24.20;99.90
1992;DHT22;997;48.448;8.924;2022-08-23T09:02:31;24.30;99.90
1992;DHT22;997;48.448;8.924;2022-08-23T09:04:59;24.50;99.90
1992;DHT22;997;48.448;8.924;2022-08-23T09:12:59;24.90;99.90
1992;DHT22;997;48.448;8.924;2022-08-23T09:17:56;25.00;99.90
1992;DHT22;997;48.448;8.924;2022-08-23T09:20:25;25.00;99.90
1992;DHT22;997;48.448;8.924;2022-08-23T09:23:08;25.00;99.90
1992;DHT22;997;48.448;8.924;2022-08-23T09:25:35;24.90;99.90
1992;DHT22;997;48.448;8.924;2022-08-23T09:28:02;24.90;99.90
1992;DHT22;997;48.448;8.924;2022-08-23T09:30:50;24.90;99.90
1992;DHT22;997;48.448;8.924;2022-08-23T09:33:19;25.00;99.90
1992;DHT22;997;48.448;8.924;2022-08-23T09:38:30;25.40;99.90
1992;DHT22;997;48.448;8.924;2022-08-23T09:40:56;25.50;99.90
1992;DHT22;997;48.448;8.924;2022-08-23T09:43:25;25.60;99.90
1992;DHT22;997;48.448;8.924;2022-08-23T09:48:50;25.90;99.90
1992;DHT22;997;48.448;8.924;2022-08-23T09:54:38;26.30;99.90
1992;DHT22;997;48.448;8.924;2022-08-23T09:56:44;26.20;99.90
1992;DHT22;997;48.448;8.924;2022-08-23T10:01:54;26.60;99.90
1992;DHT22;997;48.448;8.924;2022-08-23T10:06:49;26.60;98.70
1992;DHT22;997;48.448;8.924;2022-08-23T10:09:28;26.60;99.90
1992;DHT22;997;48.448;8.924;2022-08-23T10:11:55;26.80;99.90
1992;DHT22;997;48.448;8.924;2022-08-23T10:14:23;26.90;99.90
1992;DHT22;997;48.448;8.924;2022-08-23T10:20:23;27.00;97.50
1992;DHT22;997;48.448;8.924;2022-08-23T10:25:39;27.00;98.50
1992;DHT22;997;48.448;8.924;2022-08-23T10:31:57;27.10;97.10
1992;DHT22;997;48.448;8.924;2022-08-23T10:40:09;27.50;94.60
1992;DHT22;997;48.448;8.924;2022-08-23T10:45:25;27.80;92.10
1992;DHT22;997;48.448;8.924;2022-08-23T10:48:12;27.90;92.40
1992;DHT22;997;48.448;8.924;2022-08-23T10:50:46;28.00;91.60
1992;DHT22;997;48.448;8.924;2022-08-23T10:53:16;28.00;90.50
1992;DHT22;997;48.448;8.924;2022-08-23T10:55:51;28.10;90.30
1992;DHT22;997;48.448;8.924;2022-08-23T10:58:31;28.30;91.20
1992;DHT22;997;48.448;8.924;2022-08-23T11:00:59;28.40;89.00
1992;DHT22;997;48.448;8.924;2022-08-23T11:03:31;28.30;86.80
1992;DHT22;997;48.448;8.924;2022-08-23T11:14:32;28.50;85.20
1992;DHT22;997;48.448;8.924;2022-08-23T11:17:04;28.60;86.50
1992;DHT22;997;48.448;8.924;2022-08-23T11:20:06;28.60;85.20
1992;DHT22;997;48.448;8.924;2022-08-23T11:33:45;28.80;74.10
1992;DHT22;997;48.448;8.924;2022-08-23T11:36:23;28.80;74.30
1992;DHT22;997;48.448;8.924;2022-08-23T11:52:27;29.40;75.70
1992;DHT22;997;48.448;8.924;2022-08-23T12:03:04;29.30;73.00
1992;DHT22;997;48.448;8.924;2022-08-23T12:16:24;29.80;68.40
1992;DHT22;997;48.448;8.924;2022-08-23T12:18:54;29.90;66.60
1992;DHT22;997;48.448;8.924;2022-08-23T12:24:33;30.20;65.90
1992;DHT22;997;48.448;8.924;2022-08-23T12:29:57;29.90;64.90
1992;DHT22;997;48.448;8.924;2022-08-23T12:38:08;30.30;62.90
1992;DHT22;997;48.448;8.924;2022-08-23T12:40:45;30.20;61.70
1992;DHT22;997;48.448;8.924;2022-08-23T12:45:47;30.10;65.60
1992;DHT22;997;48.448;8.924;2022-08-23T12:48:16;30.10;63.40
1992;DHT22;997;48.448;8.924;2022-08-23T12:50:44;30.20;65.60
1992;DHT22;997;48.448;8.924;2022-08-23T12:53:13;30.30;60.30
1992;DHT22;997;48.448;8.924;2022-08-23T12:55:46;30.40;61.40
1992;DHT22;997;48.448;8.924;2022-08-23T12:58:15;30.60;64.50
1992;DHT22;997;48.448;8.924;2022-08-23T13:00:54;30.50;62.80
1992;DHT22;997;48.448;8.924;2022-08-23T13:03:34;30.70;61.50
1992;DHT22;997;48.448;8.924;2022-08-23T13:06:07;30.80;60.70
1992;DHT22;997;48.448;8.924;2022-08-23T13:08:39;30.70;60.30
1992;DHT22;997;48.448;8.924;2022-08-23T13:11:09;30.90;63.20
1992;DHT22;997;48.448;8.924;2022-08-23T13:13:40;31.00;62.00
1992;DHT22;997;48.448;8.924;2022-08-23T13:19:28;30.60;61.60
1992;DHT22;997;48.448;8.924;2022-08-23T13:22:24;30.70;63.90
1992;DHT22;997;48.448;8.924;2022-08-23T13:32:44;30.60;62.10
1992;DHT22;997;48.448;8.924;2022-08-23T13:35:35;30.50;61.80
1992;DHT22;997;48.448;8.924;2022-08-23T13:40:31;31.00;61.90
1992;DHT22;997;48.448;8.924;2022-08-23T13:43:04;31.30;63.00
1992;DHT22;997;48.448;8.924;2022-08-23T13:45:35;31.10;60.10
1992;DHT22;997;48.448;8.924;2022-08-23T13:48:09;31.00;61.30
1992;DHT22;997;48.448;8.924;2022-08-23T13:50:37;30.70;62.50
1992;DHT22;997;48.448;8.924;2022-08-23T13:53:04;30.70;61.10
1992;DHT22;997;48.448;8.924;2022-08-23T13:55:30;30.70;60.50
1992;DHT22;997;48.448;8.924;2022-08-23T13:57:57;30.60;59.80
1992;DHT22;997;48.448;8.924;2022-08-23T14:00:23;30.60;60.00
1992;DHT22;997;48.448;8.924;2022-08-23T14:02:50;30.70;61.30
1992;DHT22;997;48.448;8.924;2022-08-23T14:05:20;31.00;64.40
1992;DHT22;997;48.448;8.924;2022-08-23T14:07:47;31.30;62.40
1992;DHT22;997;48.448;8.924;2022-08-23T14:10:18;31.50;59.90
1992;DHT22;997;48.448;8.924;2022-08-23T14:12:45;31.70;61.90
1992;DHT22;997;48.448;8.924;2022-08-23T14:15:12;31.80;59.20
1992;DHT22;997;48.448;8.924;2022-08-23T14:17:41;31.70;57.50
1992;DHT22;997;48.448;8.924;2022-08-23T14:20:07;31.60;59.70
1992;DHT22;997;48.448;8.924;2022-08-23T14:22:35;31.30;58.90
1992;DHT22;997;48.448;8.924;2022-08-23T14:25:01;31.50;58.60
1992;DHT22;997;48.448;8.924;2022-08-23T14:27:27;31.60;57.80
1992;DHT22;997;48.448;8.924;2022-08-23T14:29:53;31.80;58.70
1992;DHT22;997;48.448;8.924;2022-08-23T14:32:19;32.00;57.60
1992;DHT22;997;48.448;8.924;2022-08-23T14:34:44;32.10;58.60
1992;DHT22;997;48.448;8.924;2022-08-23T14:37:10;32.20;56.70
1992;DHT22;997;48.448;8.924;2022-08-23T14:39:36;32.30;56.80
1992;DHT22;997;48.448;8.924;2022-08-23T14:42:02;32.60;57.60
1992;DHT22;997;48.448;8.924;2022-08-23T14:44:28;32.70;55.40
1992;DHT22;997;48.448;8.924;2022-08-23T14:46:54;32.60;56.10
1992;DHT22;997;48.448;8.924;2022-08-23T14:49:19;32.90;55.60
1992;DHT22;997;48.448;8.924;2022-08-23T14:51:47;33.00;54.20
1992;DHT22;997;48.448;8.924;2022-08-23T14:54:17;33.20;56.20
1992;DHT22;997;48.448;8.924;2022-08-23T14:56:44;33.70;54.50
1992;DHT22;997;48.448;8.924;2022-08-23T14:59:09;34.30;55.00
1992;DHT22;997;48.448;8.924;2022-08-23T15:01:36;34.80;54.40
1992;DHT22;997;48.448;8.924;2022-08-23T15:04:02;34.30;51.40
1992;DHT22;997;48.448;8.924;2022-08-23T15:06:28;34.30;52.80
1992;DHT22;997;48.448;8.924;2022-08-23T15:08:54;34.60;51.00
1992;DHT22;997;48.448;8.924;2022-08-23T15:11:20;34.50;51.10
1992;DHT22;997;48.448;8.924;2022-08-23T15:13:46;34.80;51.40
1992;DHT22;997;48.448;8.924;2022-08-23T15:16:14;34.80;51.40
1992;DHT22;997;48.448;8.924;2022-08-23T15:18:47;35.10;50.60
1992;DHT22;997;48.448;8.924;2022-08-23T15:21:14;35.40;51.20
1992;DHT22;997;48.448;8.924;2022-08-23T15:23:41;35.30;48.70
1992;DHT22;997;48.448;8.924;2022-08-23T15:26:08;35.30;49.20
1992;DHT22;997;48.448;8.924;2022-08-23T15:28:34;35.70;50.10
1992;DHT22;997;48.448;8.924;2022-08-23T15:31:00;36.40;49.80
1992;DHT22;997;48.448;8.924;2022-08-23T15:33:27;37.00;49.70
1992;DHT22;997;48.448;8.924;2022-08-23T15:35:56;37.60;48.60
1992;DHT22;997;48.448;8.924;2022-08-23T15:38:23;38.20;47.20
1992;DHT22;997;48.448;8.924;2022-08-23T15:40:51;38.60;47.00
1992;DHT22;997;48.448;8.924;2022-08-23T15:43:18;38.50;45.70
1992;DHT22;997;48.448;8.924;2022-08-23T15:45:44;38.20;45.40
1992;DHT22;997;48.448;8.924;2022-08-23T15:48:33;38.60;44.70
1992;DHT22;997;48.448;8.924;2022-08-23T15:50:59;38.90;44.40
1992;DHT22;997;48.448;8.924;2022-08-23T15:53:25;39.20;44.60
1992;DHT22;997;48.448;8.924;2022-08-23T15:55:51;39.50;44.40
1992;DHT22;997;48.448;8.924;2022-08-23T15:58:20;39.30;42.50
1992;DHT22;997;48.448;8.924;2022-08-23T16:00:48;39.30;42.30
1992;DHT22;997;48.448;8.924;2022-08-23T16:03:14;39.10;42.60
1992;DHT22;997;48.448;8.924;2022-08-23T16:05:43;38.70;42.80
1992;DHT22;997;48.448;8.924;2022-08-23T16:08:32;38.50;43.10
1992;DHT22;997;48.448;8.924;2022-08-23T16:10:57;38.70;42.90
1992;DHT22;997;48.448;8.924;2022-08-23T16:13:24;38.80;43.30
1992;DHT22;997;48.448;8.924;2022-08-23T16:15:51;39.10;42.00
1992;DHT22;997;48.448;8.924;2022-08-23T16:18:17;39.00;41.40
1992;DHT22;997;48.448;8.924;2022-08-23T16:20:43;39.50;41.20
1992;DHT22;997;48.448;8.924;2022-08-23T16:23:10;39.50;40.90
1992;DHT22;997;48.448;8.924;2022-08-23T16:25:36;39.70;41.90
1992;DHT22;997;48.448;8.924;2022-08-23T16:28:02;40.10;40.80
1992;DHT22;997;48.448;8.924;2022-08-23T16:30:28;40.50;39.80
1992;DHT22;997;48.448;8.924;2022-08-23T16:32:55;40.80;40.50
1992;DHT22;997;48.448;8.924;2022-08-23T16:35:21;41.10;39.90
1992;DHT22;997;48.448;8.924;2022-08-23T16:37:47;41.10;39.20
1992;DHT22;997;48.448;8.924;2022-08-23T16:40:13;40.40;39.60
1992;DHT22;997;48.448;8.924;2022-08-23T16:42:40;40.50;39.90
1992;DHT22;997;48.448;8.924;2022-08-23T16:45:06;40.60;39.50
1992;DHT22;997;48.448;8.924;2022-08-23T16:47:36;40.50;39.60
1992;DHT22;997;48.448;8.924;2022-08-23T16:50:03;40.20;39.20
1992;DHT22;997;48.448;8.924;2022-08-23T16:52:29;40.00;39.80
1992;DHT22;997;48.448;8.924;2022-08-23T16:54:55;39.40;39.80
1992;DHT22;997;48.448;8.924;2022-08-23T16:57:20;38.90;40.00
1992;DHT22;997;48.448;8.924;2022-08-23T16:59:46;38.40;40.70
1992;DHT22;997;48.448;8.924;2022-08-23T17:02:41;37.50;41.40
1992;DHT22;997;48.448;8.924;2022-08-23T17:05:10;36.60;41.80
1992;DHT22;997;48.448;8.924;2022-08-23T17:07:36;35.30;42.50
1992;DHT22;997;48.448;8.924;2022-08-23T17:10:04;34.60;43.80
1992;DHT22;997;48.448;8.924;2022-08-23T17:12:30;33.80;44.40
1992;DHT22;997;48.448;8.924;2022-08-23T17:14:57;33.20;45.70
1992;DHT22;997;48.448;8.924;2022-08-23T17:17:23;32.70;46.00
1992;DHT22;997;48.448;8.924;2022-08-23T17:19:49;32.10;46.80
1992;DHT22;997;48.448;8.924;2022-08-23T17:22:15;31.60;47.40
1992;DHT22;997;48.448;8.924;2022-08-23T17:24:41;31.30;48.00
1992;DHT22;997;48.448;8.924;2022-08-23T17:27:06;31.00;48.60
1992;DHT22;997;48.448;8.924;2022-08-23T17:29:32;30.70;48.90
1992;DHT22;997;48.448;8.924;2022-08-23T17:31:58;30.50;49.40
1992;DHT22;997;48.448;8.924;2022-08-23T17:34:24;30.30;49.10
1992;DHT22;997;48.448;8.924;2022-08-23T17:36:52;30.00;49.90
1992;DHT22;997;48.448;8.924;2022-08-23T17:39:21;29.80;50.40
1992;DHT22;997;48.448;8.924;2022-08-23T17:41:48;29.70;50.60
1992;DHT22;997;48.448;8.924;2022-08-23T17:44:14;29.60;50.90
1992;DHT22;997;48.448;8.924;2022-08-23T17:46:42;29.60;51.50
1992;DHT22;997;48.448;8.924;2022-08-23T17:49:09;29.50;51.50
1992;DHT22;997;48.448;8.924;2022-08-23T17:51:35;29.40;51.50
1992;DHT22;997;48.448;8.924;2022-08-23T17:54:05;29.40;51.60
1992;DHT22;997;48.448;8.924;2022-08-23T17:56:31;29.30;51.70
1992;DHT22;997;48.448;8.924;2022-08-23T17:58:57;29.30;52.00
1992;DHT22;997;48.448;8.924;2022-08-23T18:01:23;29.20;52.30
1992;DHT22;997;48.448;8.924;2022-08-23T18:03:49;29.10;52.60
1992;DHT22;997;48.448;8.924;2022-08-23T18:06:15;29.00;52.20
1992;DHT22;997;48.448;8.924;2022-08-23T18:08:41;28.80;52.60
1992;DHT22;997;48.448;8.924;2022-08-23T18:11:07;28.70;53.10
1992;DHT22;997;48.448;8.924;2022-08-23T18:13:33;28.70;53.30
1992;DHT22;997;48.448;8.924;2022-08-23T18:15:59;28.70;53.60
1992;DHT22;997;48.448;8.924;2022-08-23T18:18:25;28.70;53.80
1992;DHT22;997;48.448;8.924;2022-08-23T18:20:53;28.50;53.90
1992;DHT22;997;48.448;8.924;2022-08-23T18:23:19;28.50;54.00
1992;DHT22;997;48.448;8.924;2022-08-23T18:25:46;28.40;54.20
1992;DHT22;997;48.448;8.924;2022-08-23T18:28:14;28.20;54.50
1992;DHT22;997;48.448;8.924;2022-08-23T18:30:53;28.10;54.80
1992;DHT22;997;48.448;8.924;2022-08-23T18:33:21;28.00;55.10
1992;DHT22;997;48.448;8.924;2022-08-23T18:35:48;27.90;54.90
1992;DHT22;997;48.448;8.924;2022-08-23T18:38:16;27.80;55.30
1992;DHT22;997;48.448;8.924;2022-08-23T18:40:44;27.60;55.30
1992;DHT22;997;48.448;8.924;2022-08-23T18:43:20;27.40;55.90
1992;DHT22;997;48.448;8.924;2022-08-23T18:45:48;27.20;56.30
1992;DHT22;997;48.448;8.924;2022-08-23T18:48:14;27.00;57.40
1992;DHT22;997;48.448;8.924;2022-08-23T18:50:40;27.10;58.20
1992;DHT22;997;48.448;8.924;2022-08-23T18:53:07;26.90;58.20
1992;DHT22;997;48.448;8.924;2022-08-23T18:55:33;26.90;58.80
1992;DHT22;997;48.448;8.924;2022-08-23T18:58:00;27.10;59.40
1992;DHT22;997;48.448;8.924;2022-08-23T19:00:26;26.90;59.30
1992;DHT22;997;48.448;8.924;2022-08-23T19:02:52;27.00;59.60
1992;DHT22;997;48.448;8.924;2022-08-23T19:05:18;26.80;59.70
1992;DHT22;997;48.448;8.924;2022-08-23T19:07:44;26.80;60.30
1992;DHT22;997;48.448;8.924;2022-08-23T19:10:09;26.80;60.10
1992;DHT22;997;48.448;8.924;2022-08-23T19:12:35;26.70;60.50
1992;DHT22;997;48.448;8.924;2022-08-23T19:15:01;26.60;61.30
1992;DHT22;997;48.448;8.924;2022-08-23T19:17:27;26.50;61.30
1992;DHT22;997;48.448;8.924;2022-08-23T19:19:52;26.50;62.10
1992;DHT22;997;48.448;8.924;2022-08-23T19:22:18;26.50;62.80
1992;DHT22;997;48.448;8.924;2022-08-23T19:24:44;26.50;62.90
1992;DHT22;997;48.448;8.924;2022-08-23T19:27:10;26.50;64.40
1992;DHT22;997;48.448;8.924;2022-08-23T19:29:36;26.40;64.00
1992;DHT22;997;48.448;8.924;2022-08-23T19:32:02;26.30;64.50
1992;DHT22;997;48.448;8.924;2022-08-23T19:34:28;26.20;65.10
1992;DHT22;997;48.448;8.924;2022-08-23T19:36:54;26.00;65.30
1992;DHT22;997;48.448;8.924;2022-08-23T19:39:20;25.80;65.70
1992;DHT22;997;48.448;8.924;2022-08-23T19:41:46;25.60;66.40
1992;DHT22;997;48.448;8.924;2022-08-23T19:44:14;25.40;66.60
1992;DHT22;997;48.448;8.924;2022-08-23T19:46:40;25.20;67.30
1992;DHT22;997;48.448;8.924;2022-08-23T19:49:10;25.10;67.90
1992;DHT22;997;48.448;8.924;2022-08-23T19:51:37;25.00;68.40
1992;DHT22;997;48.448;8.924;2022-08-23T19:54:04;24.90;68.80
1992;DHT22;997;48.448;8.924;2022-08-23T19:56:43;24.90;69.60
1992;DHT22;997;48.448;8.924;2022-08-23T19:59:12;24.90;69.70
1992;DHT22;997;48.448;8.924;2022-08-23T20:01:39;24.90;69.80
1992;DHT22;997;48.448;8.924;2022-08-23T20:04:05;24.90;70.50
1992;DHT22;997;48.448;8.924;2022-08-23T20:06:32;24.80;71.00
1992;DHT22;997;48.448;8.924;2022-08-23T20:08:58;24.80;71.20
1992;DHT22;997;48.448;8.924;2022-08-23T20:11:25;24.80;72.70
1992;DHT22;997;48.448;8.924;2022-08-23T20:13:52;24.80;73.70
1992;DHT22;997;48.448;8.924;2022-08-23T20:16:21;24.80;74.70
1992;DHT22;997;48.448;8.924;2022-08-23T20:18:48;24.70;75.30
1992;DHT22;997;48.448;8.924;2022-08-23T20:21:13;24.60;76.00
1992;DHT22;997;48.448;8.924;2022-08-23T20:23:39;24.50;76.20
1992;DHT22;997;48.448;8.924;2022-08-23T20:26:23;24.40;76.70
1992;DHT22;997;48.448;8.924;2022-08-23T20:28:50;24.20;78.30
1992;DHT22;997;48.448;8.924;2022-08-23T20:31:21;24.00;79.40
1992;DHT22;997;48.448;8.924;2022-08-23T20:33:47;23.80;79.20
1992;DHT22;997;48.448;8.924;2022-08-23T20:36:13;23.70;80.60
1992;DHT22;997;48.448;8.924;2022-08-23T20:38:39;23.50;80.60
1992;DHT22;997;48.448;8.924;2022-08-23T20:41:06;23.40;81.30
1992;DHT22;997;48.448;8.924;2022-08-23T20:43:34;23.30;82.70
1992;DHT22;997;48.448;8.924;2022-08-23T20:46:01;23.20;83.00
1992;DHT22;997;48.448;8.924;2022-08-23T20:48:29;23.10;83.80
1992;DHT22;997;48.448;8.924;2022-08-23T20:51:01;23.00;84.60
1992;DHT22;997;48.448;8.924;2022-08-23T20:53:27;23.00;85.80
1992;DHT22;997;48.448;8.924;2022-08-23T20:55:55;22.90;86.60
1992;DHT22;997;48.448;8.924;2022-08-23T20:58:22;22.90;86.90
1992;DHT22;997;48.448;8.924;2022-08-23T21:00:48;22.90;87.60
1992;DHT22;997;48.448;8.924;2022-08-23T21:03:14;22.80;88.20
1992;DHT22;997;48.448;8.924;2022-08-23T21:05:40;22.70;89.40
1992;DHT22;997;48.448;8.924;2022-08-23T21:08:06;22.60;90.00
1992;DHT22;997;48.448;8.924;2022-08-23T21:10:33;22.60;90.80
1992;DHT22;997;48.448;8.924;2022-08-23T21:12:59;22.50;91.20
1992;DHT22;997;48.448;8.924;2022-08-23T21:15:25;22.40;91.80
1992;DHT22;997;48.448;8.924;2022-08-23T21:17:50;22.40;92.50
1992;DHT22;997;48.448;8.924;2022-08-23T21:20:16;22.40;92.70
1992;DHT22;997;48.448;8.924;2022-08-23T21:22:43;22.40;93.00
1992;DHT22;997;48.448;8.924;2022-08-23T21:25:09;22.30;93.40
1992;DHT22;997;48.448;8.924;2022-08-23T21:27:34;22.40;93.70
1992;DHT22;997;48.448;8.924;2022-08-23T21:30:01;22.40;94.40
